Terminal Aerodrome Forecast
Issued by NWS Chicago, IL

Home | Current Version | Previous Version | Text Only | Print | Product List | Glossary On
Versions: 1 2 3 4 5 6 7 8 9 10 11 12 13 14 15 16 17 18 19 20 21 22 23 24 25 26 27 28 29 30 31 32
716
FTUS43 KLOT 181512 AAA
TAFRFD
TAF AMD
KRFD 181512Z 1815/1912 36016G26KT 3SM RA BR BKN006 OVC012
      TEMPO 1815/1818 2SM RASN
     FM181800 34018G29KT P6SM BKN015 OVC025
     FM182000 33017G27KT P6SM BKN025
     FM190100 32013G20KT P6SM FEW025=

USA.gov is the U.S. government's official web portal to all federal, state and local government web resources and services.